Cape Express — HO5337 — position and weather

sailwx.info

Track history (hours):
 
Tides and Currents Weather Stations Pressure Air Temp Water Temp Dewpoint Dewpoint Depression Visibility Wind Speed Wind Dir Waves Ship Positions

Cape Express

Last reported at 2017-Sep-21 22:51 UTC. Time now 2017-Sep-22 08:15 UTC.
Position N 25°58' W 079°38'.

Length 29 m; draft 2.1 m.

Type: Cargo ship. MMSI: 370269000.

Date/timePositionNaut miles runAvg speedWind from/ knotsBaromVisibWave heightAir tempDewpointWater temp
2017-Sep-21 22:51N 25°58' W 079°38'3 7.5
2017-Sep-21 22:30N 25°59' W 079°41'4 7.6
2017-Sep-21 22:00N 26°00' W 079°45'4 7.4
2017-Sep-21 21:30N 26°01' W 079°49'4 7.2
2017-Sep-21 21:00N 26°02' W 079°53'4 7.2
2017-Sep-21 20:30N 26°03' W 079°56'4 8.0
2017-Sep-21 20:00N 26°04' W 080°01'4 8.7
2017-Sep-21 19:30N 26°05' W 080°05'2 3.7
2017-Sep-21 19:00N 26°04' W 080°07'1 2.0
2017-Sep-21 18:30N 26°04' W 080°08'0 0.0
2017-Sep-21 18:00N 26°04' W 080°08'0 0.0
2017-Sep-21 17:30N 26°04' W 080°08'0 0.0
2017-Sep-21 17:00N 26°04' W 080°08'0 0.0
2017-Sep-21 16:30N 26°04' W 080°08'0 0.0
2017-Sep-21 16:00N 26°04' W 080°08'0 0.0
2017-Sep-21 15:30N 26°04' W 080°08'0 0.0
2017-Sep-21 15:00N 26°04' W 080°08'0 0.0
2017-Sep-21 14:30N 26°04' W 080°08'0 0.0
2017-Sep-21 14:00N 26°04' W 080°08'0 0.0
2017-Sep-21 13:30N 26°04' W 080°08'0 0.0
2017-Sep-21 13:00N 26°04' W 080°08'0 0.0
2017-Sep-21 12:30N 26°04' W 080°08'0 0.0
2017-Sep-21 12:00N 26°04' W 080°08'0 0.0
2017-Sep-21 11:30N 26°04' W 080°08'0 0.0
2017-Sep-21 11:00N 26°04' W 080°08'1 2.5
2017-Sep-21 10:30N 26°05' W 080°07'3 6.5
2017-Sep-21 10:00N 26°05' W 080°03'510.4
2017-Sep-21 09:30N 26°04' W 079°58'5 9.9
2017-Sep-21 09:00N 26°03' W 079°52'5 9.7
2017-Sep-21 08:30N 26°01' W 079°47'5 9.7
2017-Sep-21 08:00N 26°00' W 079°42'  
2017-Sep-17 22:11N 26°03' W 079°59'2 8.4
2017-Sep-17 22:00N 26°04' W 080°01'6 8.4
2017-Sep-17 21:20N 26°05' W 080°07'2 4.5
2017-Sep-17 20:54N 26°04' W 080°08'0 0.1
2017-Sep-17 20:30N 26°04' W 080°08'0 0.0
2017-Sep-17 20:00N 26°04' W 080°08'0 0.0
2017-Sep-17 19:30N 26°04' W 080°08'0 0.0
2017-Sep-17 19:00N 26°04' W 080°08'0 0.0
2017-Sep-17 18:30N 26°04' W 080°08'0 0.0
2017-Sep-17 18:00N 26°04' W 080°08'0 0.0
2017-Sep-17 17:30N 26°04' W 080°08'0 0.0
2017-Sep-17 17:00N 26°04' W 080°08'0 0.0
2017-Sep-17 16:30N 26°04' W 080°08'0 0.0
2017-Sep-17 16:00N 26°04' W 080°08'0 0.0
2017-Sep-17 15:30N 26°04' W 080°08'0 0.0
2017-Sep-17 15:00N 26°04' W 080°08'1 1.2
2017-Sep-17 14:23N 26°04' W 080°07'  
2017-Sep-15 09:06N 25°48' W 079°29'2 6.2
2017-Sep-15 08:48N 25°49' W 079°31'2 6.4
2017-Sep-15 08:28N 25°50' W 079°33'3 6.8
2017-Sep-15 08:00N 25°51' W 079°36'4 7.7
2017-Sep-15 07:30N 25°53' W 079°40'4 8.4
2017-Sep-15 07:00N 25°55' W 079°44'4 8.4
2017-Sep-15 06:30N 25°57' W 079°48'4 8.2
2017-Sep-15 06:00N 25°59' W 079°52'4 8.0
2017-Sep-15 05:30N 26°01' W 079°56'4 8.1
2017-Sep-15 05:00N 26°03' W 080°00'4 8.2
2017-Sep-15 04:30N 26°05' W 080°04'3 5.8
2017-Sep-15 04:00N 26°04' W 080°07'1 1.4
2017-Sep-15 03:30N 26°04' W 080°08'0 0.0
2017-Sep-15 03:00N 26°04' W 080°08'0 0.0
2017-Sep-15 02:30N 26°04' W 080°08'0 0.0
2017-Sep-15 02:00N 26°04' W 080°08'0 0.0
2017-Sep-15 01:30N 26°04' W 080°08'0 0.0
2017-Sep-15 01:00N 26°04' W 080°08'0 0.0
2017-Sep-15 00:30N 26°04' W 080°08'0 0.0
2017-Sep-15 00:00N 26°04' W 080°08'0 0.0
2017-Sep-14 23:30N 26°04' W 080°08'0 0.0
2017-Sep-14 23:00N 26°04' W 080°08'0 0.0
2017-Sep-14 22:30N 26°04' W 080°08'0 0.0
2017-Sep-14 22:00N 26°04' W 080°08'0 0.0
2017-Sep-14 21:30N 26°04' W 080°08'1 2.5
2017-Sep-14 21:00N 26°05' W 080°07'3 6.6
2017-Sep-14 20:30N 26°06' W 080°03'5 9.9
2017-Sep-14 20:00N 26°05' W 079°58'5 9.5
2017-Sep-14 19:30N 26°05' W 079°53'5 9.8
2017-Sep-14 19:00N 26°05' W 079°47'510.3
2017-Sep-14 18:30N 26°05' W 079°41'510.3
2017-Sep-14 18:00N 26°04' W 079°36'25 1.5
2017-Sep-14 00:41N 26°06' W 080°04'210.2
2017-Sep-14 00:28N 26°06' W 080°06'2 5.1
2017-Sep-13 23:59N 26°04' W 080°08'0 0.2
2017-Sep-13 23:30N 26°04' W 080°08'0 0.0
2017-Sep-13 23:00N 26°04' W 080°08'0 0.0
2017-Sep-13 22:30N 26°04' W 080°08'0 0.0
2017-Sep-13 22:00N 26°04' W 080°08'0 0.0
2017-Sep-13 21:30N 26°04' W 080°08'0 0.0
2017-Sep-13 21:00N 26°04' W 080°08'0 0.0
2017-Sep-13 20:30N 26°04' W 080°08'0 0.0
2017-Sep-13 20:00N 26°04' W 080°08'0 0.0
2017-Sep-13 19:30N 26°04' W 080°08'0 0.0
2017-Sep-13 19:00N 26°04' W 080°08'0 0.0
2017-Sep-13 18:30N 26°04' W 080°08'0 0.0
2017-Sep-13 18:00N 26°04' W 080°08'0 0.0
2017-Sep-13 17:28N 26°04' W 080°08'1 1.7
2017-Sep-13 16:53N 26°04' W 080°07'2 5.5
2017-Sep-13 16:30N 26°05' W 080°05'610.9
2017-Sep-13 15:57N 25°59' W 080°03'510.4
2017-Sep-13 15:29N 25°54' W 080°02'510.7
2017-Sep-13 15:00N 25°49' W 080°00'611.9
2017-Sep-13 14:30N 25°44' W 079°60'612.7
2017-Sep-13 14:00N 25°37' W 080°01'  
Track history (hours):
 
Tides and Currents Weather Stations Pressure Air Temp Water Temp Dewpoint Dewpoint Depression Visibility Wind Speed Wind Dir Waves Ship Positions

Cape Express

Last reported at 2017-Sep-21 22:51 UTC. Time now 2017-Sep-22 08:15 UTC.
Position N 25°58' W 079°38'.

Length 29 m; draft 2.1 m.

Type: Cargo ship. MMSI: 370269000.

Date/timePositionNaut miles runAvg speedWind from/ knotsBaromVisibWave heightAir tempDewpointWater temp
2017-Sep-21 22:51N 25°58' W 079°38'3 7.5
2017-Sep-21 22:30N 25°59' W 079°41'4 7.6
2017-Sep-21 22:00N 26°00' W 079°45'4 7.4
2017-Sep-21 21:30N 26°01' W 079°49'4 7.2
2017-Sep-21 21:00N 26°02' W 079°53'4 7.2
2017-Sep-21 20:30N 26°03' W 079°56'4 8.0
2017-Sep-21 20:00N 26°04' W 080°01'4 8.7
2017-Sep-21 19:30N 26°05' W 080°05'2 3.7
2017-Sep-21 19:00N 26°04' W 080°07'1 2.0
2017-Sep-21 18:30N 26°04' W 080°08'0 0.0
2017-Sep-21 18:00N 26°04' W 080°08'0 0.0
2017-Sep-21 17:30N 26°04' W 080°08'0 0.0
2017-Sep-21 17:00N 26°04' W 080°08'0 0.0
2017-Sep-21 16:30N 26°04' W 080°08'0 0.0
2017-Sep-21 16:00N 26°04' W 080°08'0 0.0
2017-Sep-21 15:30N 26°04' W 080°08'0 0.0
2017-Sep-21 15:00N 26°04' W 080°08'0 0.0
2017-Sep-21 14:30N 26°04' W 080°08'0 0.0
2017-Sep-21 14:00N 26°04' W 080°08'0 0.0
2017-Sep-21 13:30N 26°04' W 080°08'0 0.0
2017-Sep-21 13:00N 26°04' W 080°08'0 0.0
2017-Sep-21 12:30N 26°04' W 080°08'0 0.0
2017-Sep-21 12:00N 26°04' W 080°08'0 0.0
2017-Sep-21 11:30N 26°04' W 080°08'0 0.0
2017-Sep-21 11:00N 26°04' W 080°08'1 2.5
2017-Sep-21 10:30N 26°05' W 080°07'3 6.5
2017-Sep-21 10:00N 26°05' W 080°03'510.4
2017-Sep-21 09:30N 26°04' W 079°58'5 9.9
2017-Sep-21 09:00N 26°03' W 079°52'5 9.7
2017-Sep-21 08:30N 26°01' W 079°47'5 9.7
2017-Sep-21 08:00N 26°00' W 079°42'  
2017-Sep-17 22:11N 26°03' W 079°59'2 8.4
2017-Sep-17 22:00N 26°04' W 080°01'6 8.4
2017-Sep-17 21:20N 26°05' W 080°07'2 4.5
2017-Sep-17 20:54N 26°04' W 080°08'0 0.1
2017-Sep-17 20:30N 26°04' W 080°08'0 0.0
2017-Sep-17 20:00N 26°04' W 080°08'0 0.0
2017-Sep-17 19:30N 26°04' W 080°08'0 0.0
2017-Sep-17 19:00N 26°04' W 080°08'0 0.0
2017-Sep-17 18:30N 26°04' W 080°08'0 0.0
2017-Sep-17 18:00N 26°04' W 080°08'0 0.0
2017-Sep-17 17:30N 26°04' W 080°08'0 0.0
2017-Sep-17 17:00N 26°04' W 080°08'0 0.0
2017-Sep-17 16:30N 26°04' W 080°08'0 0.0
2017-Sep-17 16:00N 26°04' W 080°08'0 0.0
2017-Sep-17 15:30N 26°04' W 080°08'0 0.0
2017-Sep-17 15:00N 26°04' W 080°08'1 1.2
2017-Sep-17 14:23N 26°04' W 080°07'  
2017-Sep-15 09:06N 25°48' W 079°29'2 6.2
2017-Sep-15 08:48N 25°49' W 079°31'2 6.4
2017-Sep-15 08:28N 25°50' W 079°33'3 6.8
2017-Sep-15 08:00N 25°51' W 079°36'4 7.7
2017-Sep-15 07:30N 25°53' W 079°40'4 8.4
2017-Sep-15 07:00N 25°55' W 079°44'4 8.4
2017-Sep-15 06:30N 25°57' W 079°48'4 8.2
2017-Sep-15 06:00N 25°59' W 079°52'4 8.0
2017-Sep-15 05:30N 26°01' W 079°56'4 8.1
2017-Sep-15 05:00N 26°03' W 080°00'4 8.2
2017-Sep-15 04:30N 26°05' W 080°04'3 5.8
2017-Sep-15 04:00N 26°04' W 080°07'1 1.4
2017-Sep-15 03:30N 26°04' W 080°08'0 0.0
2017-Sep-15 03:00N 26°04' W 080°08'0 0.0
2017-Sep-15 02:30N 26°04' W 080°08'0 0.0
2017-Sep-15 02:00N 26°04' W 080°08'0 0.0
2017-Sep-15 01:30N 26°04' W 080°08'0 0.0
2017-Sep-15 01:00N 26°04' W 080°08'0 0.0
2017-Sep-15 00:30N 26°04' W 080°08'0 0.0
2017-Sep-15 00:00N 26°04' W 080°08'0 0.0
2017-Sep-14 23:30N 26°04' W 080°08'0 0.0
2017-Sep-14 23:00N 26°04' W 080°08'0 0.0
2017-Sep-14 22:30N 26°04' W 080°08'0 0.0
2017-Sep-14 22:00N 26°04' W 080°08'0 0.0
2017-Sep-14 21:30N 26°04' W 080°08'1 2.5
2017-Sep-14 21:00N 26°05' W 080°07'3 6.6
2017-Sep-14 20:30N 26°06' W 080°03'5 9.9
2017-Sep-14 20:00N 26°05' W 079°58'5 9.5
2017-Sep-14 19:30N 26°05' W 079°53'5 9.8
2017-Sep-14 19:00N 26°05' W 079°47'510.3
2017-Sep-14 18:30N 26°05' W 079°41'510.3
2017-Sep-14 18:00N 26°04' W 079°36'25 1.5
2017-Sep-14 00:41N 26°06' W 080°04'210.2
2017-Sep-14 00:28N 26°06' W 080°06'2 5.1
2017-Sep-13 23:59N 26°04' W 080°08'0 0.2
2017-Sep-13 23:30N 26°04' W 080°08'0 0.0
2017-Sep-13 23:00N 26°04' W 080°08'0 0.0
2017-Sep-13 22:30N 26°04' W 080°08'0 0.0
2017-Sep-13 22:00N 26°04' W 080°08'0 0.0
2017-Sep-13 21:30N 26°04' W 080°08'0 0.0
2017-Sep-13 21:00N 26°04' W 080°08'0 0.0
2017-Sep-13 20:30N 26°04' W 080°08'0 0.0
2017-Sep-13 20:00N 26°04' W 080°08'0 0.0
2017-Sep-13 19:30N 26°04' W 080°08'0 0.0
2017-Sep-13 19:00N 26°04' W 080°08'0 0.0
2017-Sep-13 18:30N 26°04' W 080°08'0 0.0
2017-Sep-13 18:00N 26°04' W 080°08'0 0.0
2017-Sep-13 17:28N 26°04' W 080°08'1 1.7
2017-Sep-13 16:53N 26°04' W 080°07'2 5.5
2017-Sep-13 16:30N 26°05' W 080°05'610.9
2017-Sep-13 15:57N 25°59' W 080°03'510.4
2017-Sep-13 15:29N 25°54' W 080°02'510.7
2017-Sep-13 15:00N 25°49' W 080°00'611.9
2017-Sep-13 14:30N 25°44' W 079°60'612.7
2017-Sep-13 14:00N 25°37' W 080°01'  

Dump ship's entire track history